Watsonville, California
Current Conditions -  °F | °C
As of 3:53 AM on Monday 26 Jan 2015 (Local Time) from KWVI Reporting Station
Clear Clear  
Wind Chill: 45°   Ceiling: Unl
Heat Index: 47°   Visibility: 10mi
Dew Point: 39°   Wind: 5mph
Humidity: 74%   Direction: 320°NW
Pressure: 30.02"   Gusts: NA
Location:  36.91°N, 121.75°W
Report Text: KWVI 261153Z AUTO 32004KT 10SM CLR 08/04 A3002 RMK AO2 SLP166 T00830039 10133 20072 56005 $
Loading
Personal Weather Stations






























Interactive Weather Map New forecast layout! Learn more

10-Day Weather Forecast

Advertisements
Track Severe Weather on mobile